Time;durP1;ratioP1;P1;durP2;ratioP2;P2;SDS_P1;SDS_P2;PMS_P1;PMS_P2;Temp;Humidity;BMP_temperature;BMP_pressure;BME280_temperature;BME280_humidity;BME280_pressure;Samples;Min_cycle;Max_cycle;Signal;HPM_P1;HPM_P2
2022/06/03 00:00:37;;;;;;;3.08;1.63;;;16.10;62.90;;;;;;5044273;28;20033;-90
2022/06/03 00:03:12;;;;;;;1.75;1.60;;;16.00;63.00;;;;;;5048140;28;20477;-89
2022/06/03 00:05:52;;;;;;;3.80;1.70;;;16.00;63.30;;;;;;5038708;28;20096;-90
2022/06/03 00:08:52;;;;;;;2.35;1.73;;;16.00;63.30;;;;;;5048804;28;20096;-89
2022/06/03 00:11:46;;;;;;;1.90;1.75;;;15.90;63.30;;;;;;5054199;28;20029;-89
2022/06/03 00:14:34;;;;;;;1.67;1.55;;;15.90;63.50;;;;;;5043181;28;20114;-89
2022/06/03 00:17:31;;;;;;;1.92;1.75;;;15.80;63.50;;;;;;5052853;28;20486;-89
2022/06/03 00:20:06;;;;;;;1.88;1.60;;;15.80;63.50;;;;;;5048265;28;20516;-89
2022/06/03 00:22:53;;;;;;;3.17;1.73;;;15.70;63.30;;;;;;5052354;28;20470;-88
2022/06/03 00:25:51;;;;;;;1.30;1.30;;;15.60;63.50;;;;;;5024975;28;20040;-89
2022/06/03 00:28:35;;;;;;;1.90;1.75;;;15.60;63.50;;;;;;5054010;28;20029;-89
2022/06/03 00:31:28;;;;;;;2.72;1.50;;;15.50;63.70;;;;;;5051884;28;20121;-90
2022/06/03 00:34:14;;;;;;;1.60;1.50;;;15.50;63.90;;;;;;5046470;28;20029;-89
2022/06/03 00:36:46;;;;;;;3.38;1.52;;;15.50;64.20;;;;;;5037534;28;20032;-87
2022/06/03 00:39:17;;;;;;;2.47;1.93;;;15.50;64.10;;;;;;5044306;28;20029;-87
2022/06/03 00:41:55;;;;;;;4.32;1.95;;;15.50;64.20;;;;;;5051389;28;20401;-87
2022/06/03 00:44:32;;;;;;;2.30;1.75;;;15.50;64.40;;;;;;5036202;28;20047;-88
2022/06/03 00:47:07;;;;;;;1.98;1.80;;;15.50;64.30;;;;;;5049896;28;21376;-87
2022/06/03 00:49:54;;;;;;;2.13;2.00;;;15.50;64.10;;;;;;5045760;28;20033;-88
2022/06/03 00:52:42;;;;;;;4.43;2.10;;;15.40;64.10;;;;;;5050899;28;20037;-88
2022/06/03 00:55:33;;;;;;;2.00;1.80;;;15.30;64.10;;;;;;5055668;28;20113;-88
2022/06/03 00:58:20;;;;;;;4.03;1.75;;;15.30;64.30;;;;;;5067730;28;20031;-88
2022/06/03 01:01:10;;;;;;;2.17;1.98;;;15.20;64.20;;;;;;5069420;28;20050;-88
2022/06/03 01:03:56;;;;;;;2.70;1.70;;;15.20;64.30;;;;;;5069029;28;20047;-87
2022/06/03 01:06:42;;;;;;;1.60;1.50;;;15.10;64.30;;;;;;5063092;28;20040;-87
2022/06/03 01:09:29;;;;;;;5.22;1.77;;;15.10;64.30;;;;;;5067151;28;20025;-87
2022/06/03 01:12:09;;;;;;;2.90;1.75;;;15.00;64.40;;;;;;5067810;28;20024;-88
2022/06/03 01:14:58;;;;;;;3.40;1.95;;;15.00;64.60;;;;;;5064754;28;20483;-88
2022/06/03 01:17:39;;;;;;;5.32;1.77;;;15.00;64.50;;;;;;5070924;28;20082;-88
2022/06/03 01:20:14;;;;;;;2.78;1.80;;;14.90;64.60;;;;;;5059604;28;20033;-88
2022/06/03 01:22:54;;;;;;;1.83;1.73;;;14.80;64.60;;;;;;5060220;28;20017;-87
2022/06/03 01:25:31;;;;;;;1.95;1.85;;;14.80;64.70;;;;;;5068872;28;20375;-87
2022/06/03 01:28:03;;;;;;;2.08;1.90;;;14.80;64.70;;;;;;5067670;28;20081;-87
2022/06/03 01:30:31;;;;;;;1.75;1.50;;;14.70;64.80;;;;;;5066868;28;20175;-88
2022/06/03 01:33:15;;;;;;;1.55;1.38;;;14.70;64.80;;;;;;5055674;28;20032;-88
2022/06/03 01:35:51;;;;;;;1.48;1.38;;;14.70;65.00;;;;;;5060138;28;20100;-88
2022/06/03 01:38:36;;;;;;;1.67;1.42;;;14.70;65.00;;;;;;5068087;28;21036;-88
2022/06/03 01:41:46;;;;;;;1.48;1.38;;;14.70;65.10;;;;;;5071496;28;20036;-87
2022/06/03 01:44:33;;;;;;;2.75;1.33;;;14.70;65.00;;;;;;5009676;28;20497;-87
2022/06/03 01:47:30;;;;;;;2.80;1.50;;;14.70;64.90;;;;;;5066045;28;20032;-88
2022/06/03 01:49:55;;;;;;;2.60;1.67;;;14.70;65.00;;;;;;5059976;28;20035;-87
2022/06/03 01:52:43;;;;;;;2.25;1.60;;;14.70;64.80;;;;;;5059053;28;20032;-88
2022/06/03 01:55:42;;;;;;;1.70;1.60;;;14.70;65.30;;;;;;5068707;28;20036;-87
2022/06/03 01:58:30;;;;;;;1.77;1.65;;;14.80;65.40;;;;;;5061398;28;21511;-88
2022/06/03 02:01:08;;;;;;;1.50;1.40;;;14.80;65.40;;;;;;5059649;28;20187;-88
2022/06/03 02:04:18;;;;;;;1.63;1.52;;;14.80;65.30;;;;;;5071810;28;20092;-87
2022/06/03 02:07:21;;;;;;;1.63;1.52;;;14.80;65.30;;;;;;5051740;28;20044;-87
2022/06/03 02:10:01;;;;;;;1.67;1.58;;;14.80;65.20;;;;;;5066731;28;20062;-87
2022/06/03 02:12:41;;;;;;;1.92;1.83;;;14.80;65.20;;;;;;5068146;28;20039;-87
2022/06/03 02:15:25;;;;;;;1.70;1.60;;;14.70;65.30;;;;;;5065571;28;20114;-88
2022/06/03 02:18:09;;;;;;;1.70;1.60;;;14.80;65.40;;;;;;5059673;28;20020;-88
2022/06/03 02:21:08;;;;;;;1.80;1.70;;;14.80;65.60;;;;;;5061112;28;20024;-88
2022/06/03 02:23:54;;;;;;;3.92;1.88;;;14.70;66.10;;;;;;5063152;28;20389;-88
2022/06/03 02:26:39;;;;;;;2.60;1.90;;;14.80;66.20;;;;;;5081589;28;20064;-88
2022/06/03 02:32:49;;;;;;;2.20;2.00;;;14.70;65.70;;;;;;5067955;28;20031;-87
2022/06/03 02:35:41;;;;;;;1.85;1.75;;;14.60;65.60;;;;;;5066711;28;20048;-86
2022/06/03 02:38:43;;;;;;;3.00;2.08;;;14.50;65.70;;;;;;5062859;28;20024;-88
2022/06/03 02:41:43;;;;;;;3.63;2.13;;;14.50;65.90;;;;;;5065213;28;20040;-88
2022/06/03 02:44:24;;;;;;;2.33;2.13;;;14.50;66.00;;;;;;5061680;28;20477;-87
2022/06/03 02:46:59;;;;;;;3.83;1.83;;;14.50;66.00;;;;;;5067092;28;21512;-87
2022/06/03 02:49:52;;;;;;;2.00;1.80;;;14.50;66.00;;;;;;5061453;28;20033;-88
2022/06/03 02:52:36;;;;;;;2.55;1.80;;;14.50;66.20;;;;;;5070498;28;20037;-87
2022/06/03 02:55:29;;;;;;;1.80;1.70;;;14.50;66.30;;;;;;5065348;28;20029;-87
2022/06/03 02:58:11;;;;;;;;;;;14.50;66.20;;;;;;5069338;28;20024;-88
2022/06/03 03:00:40;;;;;;;3.00;1.50;;;14.50;65.40;;;;;;5062191;28;20372;-88
2022/06/03 03:03:32;;;;;;;1.85;1.75;;;14.50;65.50;;;;;;5066734;28;20021;-89
2022/06/03 03:06:18;;;;;;;5.22;1.92;;;14.40;65.60;;;;;;5064876;28;20039;-88
2022/06/03 03:09:16;;;;;;;1.80;1.70;;;14.40;65.50;;;;;;5037708;28;20036;-87
2022/06/03 03:12:25;;;;;;;1.70;1.60;;;14.30;65.70;;;;;;5070182;28;20024;-88
2022/06/03 03:15:28;;;;;;;3.17;1.98;;;14.30;65.90;;;;;;5064806;28;20070;-88
2022/06/03 03:18:17;;;;;;;1.80;1.65;;;14.20;66.10;;;;;;5064941;28;20119;-88
2022/06/03 03:21:08;;;;;;;3.25;1.73;;;14.20;66.30;;;;;;5063472;28;20028;-88
2022/06/03 03:23:46;;;;;;;6.03;1.90;;;14.30;66.40;;;;;;5065330;28;20021;-88
2022/06/03 03:26:31;;;;;;;3.58;2.00;;;14.30;66.40;;;;;;5062953;28;20051;-87
2022/06/03 03:29:22;;;;;;;2.20;2.00;;;14.30;66.40;;;;;;5063942;28;20032;-88
2022/06/03 03:32:13;;;;;;;2.25;1.75;;;14.30;66.30;;;;;;5056792;28;20029;-88
2022/06/03 03:35:09;;;;;;;2.97;1.80;;;14.20;66.00;;;;;;5064976;28;20504;-88
2022/06/03 03:37:53;;;;;;;2.30;1.92;;;14.10;66.20;;;;;;5064787;28;20033;-88
2022/06/03 03:40:37;;;;;;;2.17;1.63;;;14.10;66.20;;;;;;5064216;28;20073;-88
2022/06/03 03:43:15;;;;;;;1.55;1.40;;;14.10;66.40;;;;;;5064645;28;20170;-88
2022/06/03 03:46:03;;;;;;;4.53;2.00;;;14.00;66.40;;;;;;5057996;28;20025;-88
2022/06/03 03:48:56;;;;;;;3.50;1.92;;;14.00;66.60;;;;;;5064886;28;20396;-84
2022/06/03 03:51:46;;;;;;;3.35;1.73;;;13.90;66.60;;;;;;5071256;28;20031;-88
2022/06/03 03:54:47;;;;;;;2.42;1.80;;;13.90;66.70;;;;;;5070313;28;20036;-88
2022/06/03 03:57:34;;;;;;;4.47;1.75;;;14.00;66.90;;;;;;5061953;28;20082;-88
2022/06/03 04:00:06;;;;;;;3.70;1.80;;;14.00;67.00;;;;;;5071105;28;20218;-87
2022/06/03 04:02:50;;;;;;;3.70;2.00;;;14.00;67.00;;;;;;5072502;28;20067;-88
2022/06/03 04:05:47;;;;;;;2.15;1.95;;;14.00;67.10;;;;;;5054328;28;20043;-90
2022/06/03 04:08:30;;;;;;;2.63;2.03;;;14.10;67.20;;;;;;5073517;28;20092;-88
2022/06/03 04:11:44;;;;;;;3.53;1.90;;;14.10;67.00;;;;;;5057903;28;20128;-88
2022/06/03 04:14:43;;;;;;;10.45;3.60;;;14.10;67.00;;;;;;5060229;28;20031;-88
2022/06/03 04:17:39;;;;;;;4.88;2.92;;;14.10;67.00;;;;;;5067447;28;20028;-88
2022/06/03 04:20:11;;;;;;;2.60;2.40;;;14.10;67.10;;;;;;5062768;28;20024;-87
2022/06/03 04:22:53;;;;;;;2.92;2.00;;;14.20;67.20;;;;;;5067072;28;20439;-88
2022/06/03 04:25:43;;;;;;;3.25;2.28;;;14.20;67.10;;;;;;5070605;28;20086;-87
2022/06/03 04:28:47;;;;;;;2.35;1.92;;;14.20;67.30;;;;;;5060667;28;20025;-87
2022/06/03 04:31:51;;;;;;;12.32;2.30;;;14.20;67.30;;;;;;5075807;28;20152;-86
2022/06/03 04:34:29;;;;;;;3.65;1.90;;;14.20;67.30;;;;;;5081079;28;20058;-87
2022/06/03 04:37:25;;;;;;;2.65;2.05;;;14.20;67.40;;;;;;5067096;28;20029;-88
2022/06/03 04:40:07;;;;;;;5.22;2.53;;;14.20;67.60;;;;;;5060813;28;20020;-88
2022/06/03 04:42:35;;;;;;;2.38;2.15;;;14.20;67.80;;;;;;5056086;28;20091;-88
2022/06/03 04:45:32;;;;;;;2.90;1.90;;;14.20;67.60;;;;;;5070350;28;20123;-87
2022/06/03 04:48:19;;;;;;;3.35;2.15;;;14.20;67.90;;;;;;5062853;28;20076;-88
2022/06/03 04:50:57;;;;;;;2.05;1.85;;;14.20;67.90;;;;;;5062084;28;20135;-88
2022/06/03 04:54:01;;;;;;;5.90;2.42;;;14.20;67.80;;;;;;5071307;28;20472;-88
2022/06/03 04:56:55;;;;;;;4.93;2.22;;;14.30;68.30;;;;;;5074248;22;20050;-84
2022/06/03 04:59:52;;;;;;;2.83;1.83;;;14.30;68.30;;;;;;5050885;28;20059;-84
2022/06/03 05:03:04;;;;;;;5.03;2.13;;;14.30;68.30;;;;;;5027616;28;20132;-84
2022/06/03 05:05:55;;;;;;;5.22;2.03;;;14.40;68.40;;;;;;5068580;28;20039;-84
2022/06/03 05:08:43;;;;;;;4.55;2.20;;;14.50;68.30;;;;;;5040440;28;20029;-85
2022/06/03 05:11:33;;;;;;;2.47;2.28;;;14.70;68.40;;;;;;5050793;28;20029;-84
2022/06/03 05:14:18;;;;;;;4.25;2.00;;;14.80;68.30;;;;;;5026603;28;20084;-84
2022/06/03 05:16:43;;;;;;;2.38;2.08;;;15.10;68.30;;;;;;5046743;28;20089;-84
2022/06/03 05:19:27;;;;;;;2.28;2.00;;;15.30;68.00;;;;;;5022708;28;20748;-84
2022/06/03 05:22:31;;;;;;;2.22;1.63;;;15.50;68.00;;;;;;5049290;28;20381;-85
2022/06/03 05:25:22;;;;;;;3.22;1.85;;;15.80;67.90;;;;;;5062063;28;20031;-85
2022/06/03 05:28:02;;;;;;;3.25;1.90;;;16.10;67.50;;;;;;5044071;28;20025;-85
2022/06/03 05:31:06;;;;;;;3.70;1.77;;;16.30;67.40;;;;;;5033564;28;20434;-85
2022/06/03 05:34:02;;;;;;;2.95;1.95;;;16.50;67.20;;;;;;5029799;28;20033;-84
2022/06/03 05:36:55;;;;;;;18.50;12.27;;;16.70;67.00;;;;;;5051352;28;20041;-85
2022/06/03 05:39:42;;;;;;;3.03;2.25;;;16.90;67.20;;;;;;5055036;28;20033;-85
2022/06/03 05:42:27;;;;;;;2.20;2.00;;;17.00;67.00;;;;;;5040549;28;20022;-85
2022/06/03 05:45:20;;;;;;;4.85;1.88;;;17.10;67.00;;;;;;5025989;28;20051;-85
2022/06/03 05:48:05;;;;;;;2.90;1.60;;;17.30;67.10;;;;;;5054262;28;20033;-86
2022/06/03 05:51:12;;;;;;;2.90;1.90;;;17.50;67.10;;;;;;5031592;28;20513;-86
2022/06/03 05:53:58;;;;;;;5.25;1.70;;;17.50;67.00;;;;;;5046855;28;20097;-86
2022/06/03 05:56:24;;;;;;;3.00;1.65;;;17.60;67.00;;;;;;5021252;28;20060;-85
2022/06/03 05:58:58;;;;;;;2.00;1.90;;;17.60;66.80;;;;;;5032998;28;20028;-86
2022/06/03 06:01:34;;;;;;;2.65;1.65;;;17.60;66.90;;;;;;5049695;28;20118;-85
2022/06/03 06:04:18;;;;;;;2.50;1.60;;;17.60;66.90;;;;;;5037054;28;20030;-86
2022/06/03 06:06:59;;;;;;;1.95;1.75;;;17.60;67.00;;;;;;5050398;28;20024;-85
2022/06/03 06:10:19;;;;;;;2.15;1.80;;;17.60;67.00;;;;;;5048425;28;20365;-85
2022/06/03 06:12:58;;;;;;;2.88;2.10;;;17.60;67.10;;;;;;4977906;28;20034;-85
2022/06/03 06:15:47;;;;;;;7.68;1.70;;;17.60;67.30;;;;;;5015061;28;20455;-85
2022/06/03 06:18:44;;;;;;;4.97;2.08;;;17.60;67.30;;;;;;5040186;28;20172;-85
2022/06/03 06:21:38;;;;;;;3.08;1.83;;;17.70;67.30;;;;;;5052402;28;20029;-86
2022/06/03 06:24:07;;;;;;;3.78;1.90;;;17.70;67.60;;;;;;5034836;28;20032;-86
2022/06/03 06:26:44;;;;;;;2.47;1.85;;;17.90;67.70;;;;;;5028980;28;20088;-86
2022/06/03 06:29:42;;;;;;;5.07;1.98;;;17.90;67.80;;;;;;5024201;28;20034;-86
2022/06/03 06:32:32;;;;;;;3.13;1.90;;;18.10;67.90;;;;;;5039678;28;20028;-85
2022/06/03 06:35:23;;;;;;;4.60;1.90;;;18.10;67.80;;;;;;5030074;28;20025;-85
2022/06/03 06:38:11;;;;;;;2.00;1.73;;;18.30;67.90;;;;;;5018780;28;20393;-86
2022/06/03 06:40:55;;;;;;;3.15;1.92;;;18.40;67.70;;;;;;5024160;28;20037;-87
2022/06/03 06:43:39;;;;;;;2.83;1.98;;;18.50;68.30;;;;;;5024270;28;20029;-86
2022/06/03 06:46:28;;;;;;;3.25;2.13;;;18.60;68.00;;;;;;5025443;28;20508;-86
2022/06/03 06:49:11;;;;;;;3.20;2.40;;;18.70;67.90;;;;;;5043005;28;20108;-87
2022/06/03 06:51:59;;;;;;;4.43;1.90;;;18.90;68.10;;;;;;5022023;28;20396;-87
2022/06/03 06:54:25;;;;;;;2.05;1.85;;;19.10;68.10;;;;;;5021875;28;20072;-87
2022/06/03 06:57:10;;;;;;;2.92;1.95;;;19.30;68.00;;;;;;5030976;28;20057;-87
2022/06/03 07:00:10;;;;;;;3.38;1.95;;;19.50;67.80;;;;;;5032237;28;20029;-87
2022/06/03 07:02:42;;;;;;;2.90;2.00;;;19.70;67.50;;;;;;5021507;28;20065;-87
2022/06/03 07:05:10;;;;;;;4.57;1.83;;;19.90;67.50;;;;;;5017236;28;20155;-87
2022/06/03 07:07:44;;;;;;;2.70;2.22;;;20.10;67.20;;;;;;5025846;28;20025;-88
2022/06/03 07:10:10;;;;;;;2.55;2.03;;;20.40;67.00;;;;;;5030276;28;20083;-87
2022/06/03 07:12:44;;;;;;;3.38;1.73;;;20.60;66.70;;;;;;5028550;28;20440;-87
2022/06/03 07:15:15;;;;;;;2.40;1.60;;;20.90;66.70;;;;;;5029620;28;20028;-87
2022/06/03 07:21:15;;;;;;;2.28;1.98;;;21.50;66.20;;;;;;5051224;28;20039;-87
2022/06/03 07:23:56;;;;;;;3.42;2.40;;;21.80;65.40;;;;;;5029797;28;20020;-87
2022/06/03 07:26:36;;;;;;;4.13;1.70;;;22.00;65.50;;;;;;5048152;28;20054;-87
2022/06/03 07:29:13;;;;;;;4.22;1.90;;;22.40;65.30;;;;;;5044476;28;20021;-88
2022/06/03 07:31:42;;;;;;;3.40;1.88;;;22.80;64.80;;;;;;5045987;28;20085;-89
2022/06/03 07:34:43;;;;;;;3.30;2.03;;;23.00;65.20;;;;;;5050159;28;20030;-89
2022/06/03 07:37:23;;;;;;;5.93;1.95;;;23.30;64.20;;;;;;5049560;28;20027;-87
2022/06/03 07:40:19;;;;;;;2.63;1.65;;;23.60;63.80;;;;;;5061221;28;20029;-87
2022/06/03 07:43:04;;;;;;;8.35;2.10;;;23.90;63.50;;;;;;5061549;28;20504;-88
2022/06/03 07:45:51;;;;;;;6.93;2.05;;;24.20;63.10;;;;;;5043995;28;21166;-88
2022/06/03 07:48:23;;;;;;;3.92;1.70;;;24.30;62.60;;;;;;5043916;28;20029;-88
2022/06/03 07:50:56;;;;;;;;;;;24.60;62.40;;;;;;5028454;28;20026;-87
2022/06/03 07:53:24;;;;;;;;;;;24.80;62.50;;;;;;5025662;28;19964;-88
2022/06/03 07:55:56;;;;;;;8.45;2.10;;;25.00;62.40;;;;;;5042625;28;19913;-89
2022/06/03 07:58:24;;;;;;;2.00;1.80;;;25.20;61.80;;;;;;5027763;28;20564;-88
2022/06/03 08:00:50;;;;;;;6.60;1.95;;;25.40;61.80;;;;;;5035021;28;20102;-90
2022/06/03 08:03:24;;;;;;;1.45;1.30;;;25.70;61.40;;;;;;5042574;28;20037;-91
2022/06/03 08:05:56;;;;;;;4.20;1.60;;;25.90;61.10;;;;;;5033927;28;20527;-89
2022/06/03 08:11:24;;;;;;;2.53;1.70;;;26.30;60.30;;;;;;5040946;28;20040;-88
2022/06/03 08:13:53;;;;;;;1.90;1.70;;;26.30;60.30;;;;;;5041292;28;20507;-88
2022/06/03 08:16:41;;;;;;;4.90;1.65;;;26.40;60.50;;;;;;5023326;28;20029;-88
2022/06/03 08:19:10;;;;;;;3.20;1.67;;;26.60;60.40;;;;;;5020287;28;20026;-88
2022/06/03 08:21:49;;;;;;;2.45;1.50;;;26.90;60.10;;;;;;5026793;28;20104;-93
2022/06/03 08:24:19;;;;;;;3.17;1.55;;;27.10;59.80;;;;;;5025395;28;20038;-87
2022/06/03 08:26:48;;;;;;;4.90;1.80;;;27.40;59.60;;;;;;5032392;28;20505;-88
2022/06/03 08:29:38;;;;;;;3.53;1.70;;;27.50;59.00;;;;;;5044279;28;20025;-89
2022/06/03 08:32:15;;;;;;;5.40;1.90;;;27.60;58.20;;;;;;5049568;28;20051;-89
2022/06/03 08:34:50;;;;;;;6.22;1.67;;;27.70;58.50;;;;;;5043553;28;20078;-92
2022/06/03 08:37:21;;;;;;;3.20;1.83;;;27.80;58.80;;;;;;5037504;28;20037;-89
2022/06/03 08:39:48;;;;;;;4.20;1.90;;;27.90;58.30;;;;;;5037388;28;20036;-87
2022/06/03 08:42:20;;;;;;;6.55;1.50;;;28.10;58.40;;;;;;5022152;28;20045;-91
2022/06/03 08:44:51;;;;;;;;;;;28.30;58.40;;;;;;5032806;28;20128;-91
2022/06/03 08:47:36;;;;;;;4.87;1.37;;;28.50;59.10;;;;;;5044506;28;19924;-89
2022/06/03 08:50:25;;;;;;;3.38;1.60;;;28.80;58.40;;;;;;5049489;28;20559;-88
2022/06/03 08:53:09;;;;;;;4.53;1.88;;;29.00;57.90;;;;;;5016597;28;20072;-90
2022/06/03 08:55:44;;;;;;;2.13;1.42;;;29.30;57.90;;;;;;5031706;28;20137;-88
2022/06/03 08:58:35;;;;;;;4.70;1.63;;;29.40;57.10;;;;;;5035656;28;20061;-91
2022/06/03 09:01:34;;;;;;;3.47;1.60;;;29.50;57.30;;;;;;4991444;28;20037;-89
2022/06/03 09:04:23;;;;;;;4.68;1.80;;;29.70;57.20;;;;;;5021290;28;20029;-89
2022/06/03 09:07:23;;;;;;;3.40;1.67;;;29.80;57.10;;;;;;5033002;28;20140;-89
